Time;durP1;ratioP1;P1;durP2;ratioP2;P2;SDS_P1;SDS_P2;PMS_P1;PMS_P2;Temp;Humidity;BMP_temperature;BMP_pressure;BME280_temperature;BME280_humidity;BME280_pressure;Samples;Min_cycle;Max_cycle;Signal;HPM_P1;HPM_P2
2023/01/19 00:02:17;;;;;;;0.00;0.00;;;;;;;2.08;70.84;100176.84;7350537;19;20006;-56
2023/01/19 00:04:42;;;;;;;0.10;0.10;;;;;;;2.03;70.60;100169.09;7349650;19;20110;-54
2023/01/19 00:07:08;;;;;;;0.00;0.00;;;;;;;2.10;70.51;100176.84;7350694;19;20062;-56
2023/01/19 00:09:37;;;;;;;0.00;0.00;;;;;;;2.10;70.53;100176.84;7352287;19;20010;-56
2023/01/19 00:12:03;;;;;;;0.10;0.10;;;;;;;2.08;70.54;100185.44;7352211;19;20014;-56
2023/01/19 00:14:28;;;;;;;0.00;0.00;;;;;;;1.90;70.60;100145.88;7348376;19;20042;-55
2023/01/19 00:16:54;;;;;;;0.00;0.00;;;;;;;2.05;71.01;100171.69;7351300;19;20020;-53
2023/01/19 00:19:19;;;;;;;0.10;0.10;;;;;;;2.07;70.72;100177.69;7349771;19;20035;-54
2023/01/19 00:21:45;;;;;;;0.10;0.10;;;;;;;2.05;71.05;100176.81;7355079;19;21129;-56
2023/01/19 00:24:12;;;;;;;0.00;0.00;;;;;;;2.07;70.70;100172.53;7352335;19;20006;-53
2023/01/19 00:26:39;;;;;;;0.00;0.00;;;;;;;2.05;70.73;100174.25;7351762;19;20018;-54
2023/01/19 00:29:06;;;;;;;0.00;0.00;;;;;;;2.03;71.00;100169.09;7350467;19;20014;-56
2023/01/19 00:31:35;;;;;;;0.00;0.00;;;;;;;2.04;70.81;100180.25;7349627;19;20494;-57
2023/01/19 00:34:01;;;;;;;0.00;0.00;;;;;;;2.04;70.78;100169.97;7350506;19;20010;-57
2023/01/19 00:36:26;;;;;;;0.10;0.10;;;;;;;2.01;70.80;100165.66;7350377;19;20025;-53
2023/01/19 00:38:51;;;;;;;0.10;0.10;;;;;;;2.01;71.20;100162.22;7350641;19;20014;-56
2023/01/19 00:41:17;;;;;;;0.00;0.00;;;;;;;2.00;71.35;100160.50;7350253;19;20034;-56
2023/01/19 00:43:42;;;;;;;0.05;0.05;;;;;;;2.00;71.00;100155.34;7350976;19;20010;-56
2023/01/19 00:46:08;;;;;;;0.00;0.00;;;;;;;1.99;71.41;100159.66;7349661;19;20016;-54
2023/01/19 00:48:33;;;;;;;0.10;0.10;;;;;;;1.99;71.03;100156.22;7350396;19;20014;-56
2023/01/19 00:50:58;;;;;;;0.00;0.00;;;;;;;1.99;71.06;100163.94;7351003;19;20010;-54
2023/01/19 00:53:25;;;;;;;0.10;0.10;;;;;;;1.99;70.85;100159.66;7346745;19;20025;-56
2023/01/19 00:55:50;;;;;;;0.00;0.00;;;;;;;1.90;71.39;100143.31;7353316;19;20026;-56
2023/01/19 00:58:16;;;;;;;0.00;0.00;;;;;;;1.94;71.19;100145.91;7354152;19;20416;-52
2023/01/19 01:00:41;;;;;;;0.00;0.00;;;;;;;1.95;70.91;100151.91;7353122;19;20856;-54
2023/01/19 01:03:06;;;;;;;0.10;0.10;;;;;;;1.94;71.10;100145.91;7352954;19;20030;-54
2023/01/19 01:05:32;;;;;;;0.10;0.10;;;;;;;1.92;71.44;100149.31;7353662;19;20031;-53
2023/01/19 01:07:57;;;;;;;0.10;0.10;;;;;;;1.89;71.38;100139.88;7353416;19;20476;-54
2023/01/19 01:10:26;;;;;;;0.00;0.00;;;;;;;1.91;71.60;100145.00;7352794;19;20002;-56
2023/01/19 01:12:51;;;;;;;0.10;0.10;;;;;;;1.89;71.59;100139.00;7353735;19;20088;-54
2023/01/19 01:15:17;;;;;;;0.10;0.10;;;;;;;1.87;71.51;100138.13;7350354;19;20816;-51
2023/01/19 01:17:46;;;;;;;0.10;0.10;;;;;;;1.89;71.47;100146.72;7349353;19;20962;-56
2023/01/19 01:20:15;;;;;;;0.10;0.10;;;;;;;1.88;71.50;100134.72;7351956;19;20014;-56
2023/01/19 01:22:44;;;;;;;0.10;0.10;;;;;;;1.87;71.28;100127.84;7354903;19;20022;-55
2023/01/19 01:25:13;;;;;;;0.10;0.10;;;;;;;1.76;71.40;100114.94;7351048;19;20014;-55
2023/01/19 01:27:38;;;;;;;0.10;0.10;;;;;;;1.85;71.55;100124.41;7354491;19;20630;-56
2023/01/19 01:30:05;;;;;;;0.00;0.00;;;;;;;1.87;71.23;100127.84;7353085;19;24074;-55
2023/01/19 01:32:30;;;;;;;0.10;0.10;;;;;;;1.86;71.80;100126.13;7353302;19;20101;-55
2023/01/19 01:34:56;;;;;;;0.10;0.10;;;;;;;1.87;71.27;100126.13;7352399;19;22693;-54
2023/01/19 01:37:21;;;;;;;0.10;0.10;;;;;;;1.89;71.52;100123.56;7351672;19;20099;-53
2023/01/19 01:39:46;;;;;;;0.08;0.08;;;;;;;1.88;71.69;100119.28;7352344;19;20038;-53
2023/01/19 01:42:18;;;;;;;0.10;0.10;;;;;;;1.90;71.64;100125.28;7352357;19;20031;-54
2023/01/19 01:44:58;;;;;;;0.00;0.00;;;;;;;1.91;71.19;100120.13;7350057;19;20018;-54
2023/01/19 01:47:44;;;;;;;0.10;0.10;;;;;;;1.91;71.49;100124.41;7348263;19;20797;-56
2023/01/19 01:50:13;;;;;;;0.10;0.10;;;;;;;1.92;71.33;100126.97;7350930;19;20015;-56
2023/01/19 01:53:04;;;;;;;0.10;0.10;;;;;;;1.83;71.60;100110.69;7352410;19;20019;-55
2023/01/19 01:55:31;;;;;;;0.10;0.10;;;;;;;1.92;71.54;100124.41;7352852;19;20821;-55
2023/01/19 01:58:01;;;;;;;0.00;0.00;;;;;;;1.88;71.51;100114.13;7356190;19;20840;-54
2023/01/19 02:02:49;;;;;;;0.10;0.10;;;;;;;1.92;71.37;100119.25;7358810;19;21611;-55
2023/01/19 02:03:13;;;;;;;0.07;0.07;;;;;;;1.92;71.30;100119.25;7256603;19;2004635;-54
2023/01/19 02:05:38;;;;;;;0.10;0.10;;;;;;;1.83;71.36;100100.38;7358408;19;20022;-55
2023/01/19 02:14:03;;;;;;;0.10;0.10;;;;;;;1.92;71.63;100115.84;7356703;19;20027;-55
2023/01/19 02:16:29;;;;;;;0.00;0.00;;;;;;;1.92;71.54;100105.53;7356877;19;20019;-55
2023/01/19 02:18:54;;;;;;;0.10;0.10;;;;;;;1.91;71.51;100098.66;7355896;19;20011;-55
2023/01/19 02:21:41;;;;;;;0.10;0.10;;;;;;;1.94;71.69;100103.84;7357528;19;20013;-56
2023/01/19 02:24:08;;;;;;;0.10;0.10;;;;;;;1.92;71.67;100090.94;7358109;19;20113;-51
2023/01/19 02:26:37;;;;;;;0.10;0.10;;;;;;;1.94;71.75;100090.97;7354598;19;20027;-51
2023/01/19 02:29:18;;;;;;;0.10;0.10;;;;;;;1.97;71.71;100093.53;7357242;19;20019;-54
2023/01/19 02:31:44;;;;;;;0.00;0.00;;;;;;;1.81;72.10;100067.75;7355102;19;20536;-54
2023/01/19 02:34:14;;;;;;;0.00;0.00;;;;;;;1.95;71.91;100096.13;7357215;19;20022;-53
2023/01/19 02:37:02;;;;;;;0.10;0.10;;;;;;;1.98;71.92;100096.13;7353834;19;20014;-53
2023/01/19 02:39:35;;;;;;;0.10;0.10;;;;;;;2.00;71.62;100103.84;7353843;19;20018;-57
2023/01/19 02:42:21;;;;;;;0.10;0.10;;;;;;;2.00;71.80;100099.56;7358442;19;20015;-54
2023/01/19 02:44:49;;;;;;;0.10;0.10;;;;;;;1.99;71.85;100102.13;7356316;19;20115;-54
2023/01/19 02:47:15;;;;;;;0.10;0.10;;;;;;;1.97;72.02;100101.25;7357038;19;20927;-55
2023/01/19 02:49:41;;;;;;;0.00;0.00;;;;;;;1.99;72.00;100102.13;7353437;19;20019;-56
2023/01/19 02:52:14;;;;;;;0.10;0.10;;;;;;;2.00;71.93;100103.84;7356991;19;20839;-55
2023/01/19 02:55:11;;;;;;;0.03;0.03;;;;;;;2.02;71.72;100102.13;7355591;19;21145;-55
2023/01/19 02:57:51;;;;;;;0.05;0.05;;;;;;;2.02;72.09;100096.97;7247639;19;2004329;-54
2023/01/19 03:00:38;;;;;;;0.10;0.10;;;;;;;2.02;71.88;100086.69;7353628;19;20646;-51
2023/01/19 03:03:18;;;;;;;0.10;0.10;;;;;;;2.03;71.99;100093.56;7351841;19;20030;-54
2023/01/19 03:06:08;;;;;;;0.00;0.00;;;;;;;2.02;71.68;100086.69;7352846;19;20812;-57
2023/01/19 03:08:42;;;;;;;0.00;0.00;;;;;;;2.00;71.68;100090.97;7352657;19;20010;-54
2023/01/19 03:11:12;;;;;;;0.10;0.10;;;;;;;1.99;71.51;100092.69;7351927;19;20625;-51
2023/01/19 03:13:57;;;;;;;0.10;0.10;;;;;;;1.98;71.74;100084.97;7355379;19;20095;-53
2023/01/19 03:16:47;;;;;;;0.00;0.00;;;;;;;1.98;71.97;100092.69;7348456;19;20070;-55
2023/01/19 03:19:26;;;;;;;0.10;0.10;;;;;;;1.98;71.68;100088.41;7354069;19;20086;-53
2023/01/19 03:22:02;;;;;;;0.10;0.10;;;;;;;1.96;71.41;100086.66;7352626;19;20007;-54
2023/01/19 03:24:31;;;;;;;0.10;0.10;;;;;;;1.94;71.61;100088.41;7355154;19;20038;-54
2023/01/19 03:27:05;;;;;;;0.10;0.10;;;;;;;1.94;71.42;100083.25;7353588;19;20022;-56
2023/01/19 03:29:36;;;;;;;0.00;0.00;;;;;;;1.92;71.66;100080.66;7353854;19;20018;-56
2023/01/19 03:32:08;;;;;;;0.10;0.10;;;;;;;1.95;71.59;100074.66;7352407;19;20081;-55
2023/01/19 03:34:36;;;;;;;0.10;0.10;;;;;;;1.95;71.94;100090.09;7353498;19;20009;-52
2023/01/19 03:37:03;;;;;;;0.00;0.00;;;;;;;1.95;71.94;100079.81;7350289;19;20027;-56
2023/01/19 03:39:30;;;;;;;;;;;;;;;1.98;71.31;100092.69;7355125;19;20006;-56
2023/01/19 03:42:07;;;;;;;0.10;0.10;;;;;;;1.97;71.50;100083.22;7353417;19;19921;-55
2023/01/19 03:44:37;;;;;;;0.00;0.00;;;;;;;1.94;71.97;100072.94;7353903;19;20020;-54
2023/01/19 03:47:04;;;;;;;0.10;0.10;;;;;;;1.90;72.07;100077.22;7354643;19;20115;-55
2023/01/19 03:49:31;;;;;;;0.05;0.05;;;;;;;1.95;72.01;100079.81;7356011;19;20054;-55
2023/01/19 03:51:58;;;;;;;0.10;0.10;;;;;;;1.89;72.26;100069.50;7356531;19;20018;-56
2023/01/19 03:54:24;;;;;;;0.10;0.10;;;;;;;1.94;72.00;100078.94;7357365;19;20755;-54
2023/01/19 03:56:51;;;;;;;0.10;0.10;;;;;;;1.95;72.27;100077.22;7354196;19;20017;-56
2023/01/19 03:59:16;;;;;;;0.10;0.10;;;;;;;1.96;72.25;100073.78;7357376;19;20021;-53
2023/01/19 04:01:42;;;;;;;0.10;0.10;;;;;;;1.97;71.91;100068.63;7356654;19;20014;-52
2023/01/19 04:04:07;;;;;;;0.10;0.10;;;;;;;1.87;72.18;100045.44;7344412;19;20010;-55
2023/01/19 04:06:33;;;;;;;0.08;0.08;;;;;;;1.86;72.19;100043.75;7357078;19;20014;-56
2023/01/19 04:08:58;;;;;;;0.10;0.10;;;;;;;1.98;72.17;100072.97;7358043;19;20767;-56
2023/01/19 04:11:23;;;;;;;0.00;0.00;;;;;;;1.92;72.42;100054.03;7358047;19;20022;-54
2023/01/19 04:13:49;;;;;;;0.10;0.10;;;;;;;1.99;72.25;100060.94;7357878;19;20029;-55
2023/01/19 04:16:18;;;;;;;0.10;0.10;;;;;;;1.84;72.26;100036.03;7358709;19;20090;-56
2023/01/19 04:18:44;;;;;;;0.10;0.10;;;;;;;1.99;72.13;100066.09;7354164;19;20650;-54
2023/01/19 04:21:09;;;;;;;0.10;0.10;;;;;;;1.99;72.29;100073.81;7344938;19;20018;-53
2023/01/19 04:23:35;;;;;;;0.08;0.08;;;;;;;1.97;72.16;100068.63;7353252;19;20024;-53
2023/01/19 04:26:04;;;;;;;0.10;0.10;;;;;;;1.97;72.52;100067.78;7358450;19;20728;-54
2023/01/19 04:28:30;;;;;;;0.10;0.10;;;;;;;1.97;72.56;100075.50;7358174;19;20018;-54
2023/01/19 04:30:56;;;;;;;0.10;0.10;;;;;;;1.94;72.33;100062.66;7357626;19;20022;-54
2023/01/19 04:33:22;;;;;;;0.08;0.08;;;;;;;1.94;72.19;100063.50;7356485;19;20013;-56
2023/01/19 04:35:49;;;;;;;0.10;0.10;;;;;;;1.87;72.31;100056.59;7356678;19;20055;-52
2023/01/19 04:38:15;;;;;;;0.10;0.10;;;;;;;1.79;72.17;100037.72;7361143;19;20111;-55
2023/01/19 04:40:40;;;;;;;0.10;0.10;;;;;;;1.89;71.80;100064.34;7360178;19;20018;-51
2023/01/19 04:43:06;;;;;;;0.00;0.00;;;;;;;1.88;71.65;100060.91;7361141;19;20023;-53
2023/01/19 04:45:32;;;;;;;0.10;0.10;;;;;;;1.85;72.00;100067.78;7361928;19;20031;-53
2023/01/19 04:47:57;;;;;;;0.00;0.00;;;;;;;1.83;72.09;100069.50;7355055;19;20025;-54
2023/01/19 04:50:23;;;;;;;0.08;0.08;;;;;;;1.79;72.22;100064.31;7360276;19;20010;-55
2023/01/19 04:52:49;;;;;;;0.00;0.00;;;;;;;1.77;71.91;100058.31;7357454;19;20041;-52
2023/01/19 04:55:15;;;;;;;0.10;0.10;;;;;;;1.74;71.88;100060.88;7363109;19;20665;-55
2023/01/19 04:57:40;;;;;;;0.03;0.03;;;;;;;1.72;72.05;100062.56;7364783;19;20010;-51
2023/01/19 05:00:07;;;;;;;0.10;0.10;;;;;;;1.66;71.86;100062.56;7362059;19;20034;-53
2023/01/19 05:02:33;;;;;;;0.10;0.10;;;;;;;1.67;72.32;100063.41;7363823;19;20741;-53
2023/01/19 05:04:58;;;;;;;0.10;0.10;;;;;;;1.65;71.96;100062.56;7360935;19;20010;-51
2023/01/19 05:07:23;;;;;;;0.10;0.10;;;;;;;1.62;72.16;100065.13;7364232;19;20035;-54
2023/01/19 05:09:49;;;;;;;0.10;0.10;;;;;;;1.57;72.21;100057.38;7360856;19;20029;-55
2023/01/19 05:12:15;;;;;;;0.10;0.10;;;;;;;1.57;72.04;100057.38;7364396;19;20010;-50
2023/01/19 05:14:40;;;;;;;0.00;0.00;;;;;;;1.55;72.32;100059.09;7360520;19;20017;-54
2023/01/19 05:17:06;;;;;;;0.10;0.10;;;;;;;1.53;72.50;100051.38;7363755;19;20013;-55
2023/01/19 05:19:31;;;;;;;0.10;0.10;;;;;;;1.52;72.20;100059.06;7360180;19;20014;-55
2023/01/19 05:21:57;;;;;;;0.00;0.00;;;;;;;1.49;72.33;100065.09;7363748;19;20023;-53
2023/01/19 05:24:22;;;;;;;0.00;0.00;;;;;;;1.44;72.45;100056.47;7362369;19;20002;-52
2023/01/19 05:26:48;;;;;;;0.10;0.10;;;;;;;1.46;72.55;100057.34;7363053;19;20007;-54
2023/01/19 05:29:13;;;;;;;0.10;0.10;;;;;;;1.43;72.55;100061.63;7361307;19;20018;-55
2023/01/19 05:31:38;;;;;;;0.10;0.10;;;;;;;1.44;72.44;100060.78;7358040;19;20020;-55
2023/01/19 05:34:04;;;;;;;0.00;0.00;;;;;;;1.32;72.06;100041.00;7363413;19;20006;-50
2023/01/19 05:36:30;;;;;;;0.10;0.10;;;;;;;1.40;72.43;100062.47;7359724;19;20019;-56
2023/01/19 05:38:56;;;;;;;0.10;0.10;;;;;;;1.28;72.36;100039.28;7363557;19;20442;-53
2023/01/19 05:41:21;;;;;;;0.10;0.10;;;;;;;1.36;72.23;100053.00;7360680;19;20106;-55
2023/01/19 05:43:47;;;;;;;0.10;0.10;;;;;;;1.35;72.18;100060.72;7362357;19;20011;-52
2023/01/19 05:46:12;;;;;;;0.00;0.00;;;;;;;1.30;72.39;100056.41;7360601;19;20019;-53
2023/01/19 05:48:38;;;;;;;0.10;0.10;;;;;;;1.32;72.00;100071.88;7360827;19;20078;-54
2023/01/19 05:51:04;;;;;;;0.10;0.10;;;;;;;1.28;72.13;100071.00;7361292;19;21183;-54
2023/01/19 05:53:30;;;;;;;0.03;0.03;;;;;;;1.28;72.12;100075.28;7362675;19;20035;-55
2023/01/19 05:56:00;;;;;;;0.10;0.10;;;;;;;1.27;72.47;100084.72;7359695;19;20010;-55
2023/01/19 05:58:26;;;;;;;0.00;0.00;;;;;;;1.25;72.00;100076.13;7363029;19;20018;-52
2023/01/19 06:00:51;;;;;;;0.05;0.05;;;;;;;1.23;71.94;100080.41;7361522;19;20040;-52
2023/01/19 06:03:17;;;;;;;0.10;0.10;;;;;;;1.21;71.98;100076.94;7360944;19;20672;-52
2023/01/19 06:05:42;;;;;;;0.10;0.10;;;;;;;1.20;71.95;100077.81;7360479;19;20011;-53
2023/01/19 06:08:08;;;;;;;0.10;0.10;;;;;;;1.19;72.11;100067.53;7361450;19;20795;-52
2023/01/19 06:10:33;;;;;;;0.00;0.00;;;;;;;1.18;72.02;100063.22;7361266;19;20700;-49
2023/01/19 06:12:58;;;;;;;0.10;0.10;;;;;;;1.19;72.00;100075.22;7361494;19;20010;-54
2023/01/19 06:15:24;;;;;;;0.10;0.10;;;;;;;1.18;72.13;100071.81;7361344;19;20113;-56
2023/01/19 06:17:49;;;;;;;0.10;0.10;;;;;;;1.18;72.08;100071.81;7361504;19;20010;-56
2023/01/19 06:20:15;;;;;;;0.00;0.00;;;;;;;1.17;72.20;100077.81;7360390;19;20710;-56
2023/01/19 06:22:40;;;;;;;0.10;0.10;;;;;;;1.20;72.44;100080.38;7361408;19;20774;-55
2023/01/19 06:25:06;;;;;;;0.08;0.08;;;;;;;1.22;72.27;100082.97;7360750;19;20021;-57
2023/01/19 06:27:31;;;;;;;0.00;0.00;;;;;;;1.23;72.33;100077.84;7360038;19;20062;-57
2023/01/19 06:29:57;;;;;;;0.10;0.10;;;;;;;1.25;72.33;100088.97;7359538;19;20809;-54
2023/01/19 06:32:22;;;;;;;0.10;0.10;;;;;;;1.28;72.60;100086.44;7361173;19;20002;-55
2023/01/19 06:34:48;;;;;;;0.10;0.10;;;;;;;1.32;72.53;100092.47;7359807;19;20002;-56
2023/01/19 06:37:15;;;;;;;0.10;0.10;;;;;;;1.36;72.12;100088.16;7359493;19;20006;-53
2023/01/19 06:39:41;;;;;;;0.10;0.10;;;;;;;1.23;72.23;100062.41;7360447;19;20969;-54
2023/01/19 06:42:07;;;;;;;0.10;0.10;;;;;;;1.40;72.64;100092.47;7363856;19;20196;-54
2023/01/19 06:44:33;;;;;;;0.10;0.10;;;;;;;1.42;72.48;100098.47;7366518;19;20014;-53
2023/01/19 06:46:58;;;;;;;0.10;0.10;;;;;;;1.43;72.30;100095.06;7368386;19;20380;-51
2023/01/19 06:49:23;;;;;;;0.10;0.10;;;;;;;1.49;72.61;100100.25;7365889;19;20039;-53
2023/01/19 06:51:49;;;;;;;0.08;0.08;;;;;;;1.50;72.14;100104.53;7366301;19;20037;-52
2023/01/19 06:54:14;;;;;;;0.10;0.10;;;;;;;1.53;72.36;100094.25;7367214;19;20019;-52
2023/01/19 06:56:40;;;;;;;0.10;0.10;;;;;;;1.55;72.21;100089.97;7366169;19;20010;-52
2023/01/19 06:59:05;;;;;;;0.00;0.00;;;;;;;1.58;72.44;100100.28;7355760;19;20014;-53
2023/01/19 07:01:31;;;;;;;0.05;0.05;;;;;;;1.59;72.57;100106.28;7365269;19;20014;-54
2023/01/19 07:03:57;;;;;;;0.00;0.00;;;;;;;1.61;72.43;100120.88;7366809;19;20014;-53
2023/01/19 07:06:22;;;;;;;0.10;0.10;;;;;;;1.61;72.20;100105.44;7361087;19;20765;-53
2023/01/19 07:08:48;;;;;;;0.00;0.00;;;;;;;1.60;72.12;100103.72;7363511;19;20353;-55
2023/01/19 07:11:13;;;;;;;0.10;0.10;;;;;;;1.65;72.27;100106.31;7359468;19;20490;-53
2023/01/19 07:13:39;;;;;;;0.00;0.00;;;;;;;1.68;72.27;100116.63;7355093;19;20014;-55
2023/01/19 07:16:10;;;;;;;0.00;0.00;;;;;;;1.70;72.18;100115.75;7364132;19;20006;-53
2023/01/19 07:18:37;;;;;;;0.00;0.00;;;;;;;1.71;72.23;100117.47;7365241;19;20579;-56
2023/01/19 07:21:03;;;;;;;0.10;0.10;;;;;;;1.72;71.97;100124.34;7364464;19;20035;-55
2023/01/19 07:23:29;;;;;;;0.00;0.00;;;;;;;1.74;72.41;100126.94;7351058;19;20014;-56
2023/01/19 07:26:01;;;;;;;0.00;0.00;;;;;;;1.77;72.15;100124.34;7349222;19;20811;-55
2023/01/19 07:28:28;;;;;;;0.10;0.10;;;;;;;1.78;71.94;100131.25;7354723;19;20018;-56
2023/01/19 07:30:54;;;;;;;0.10;0.10;;;;;;;1.69;72.02;100114.06;7357350;19;20034;-55
2023/01/19 07:33:21;;;;;;;0.08;0.08;;;;;;;1.79;72.28;100128.69;7359485;19;20010;-56
2023/01/19 07:35:50;;;;;;;0.00;0.00;;;;;;;1.81;72.16;100126.94;7357095;19;20063;-54
2023/01/19 07:38:17;;;;;;;0.10;0.10;;;;;;;1.74;72.20;100127.81;7357416;19;20023;-54
2023/01/19 07:40:45;;;;;;;0.00;0.00;;;;;;;1.83;72.18;100142.44;7355786;19;20049;-53
2023/01/19 07:43:11;;;;;;;0.10;0.10;;;;;;;1.83;72.19;100147.56;7356320;19;20015;-52
2023/01/19 07:45:37;;;;;;;0.00;0.00;;;;;;;1.78;72.26;100142.41;7357893;19;20369;-54
2023/01/19 07:48:03;;;;;;;0.10;0.10;;;;;;;1.86;72.28;100141.56;7357960;19;20009;-53
2023/01/19 07:50:28;;;;;;;0.10;0.10;;;;;;;1.86;72.10;100146.72;7354120;19;20844;-54
2023/01/19 07:52:55;;;;;;;0.00;0.00;;;;;;;1.87;72.04;100148.44;7356680;19;20027;-56
2023/01/19 07:55:22;;;;;;;0.00;0.00;;;;;;;1.87;72.11;100148.44;7358784;19;20732;-52
2023/01/19 07:57:51;;;;;;;0.00;0.00;;;;;;;1.78;72.17;100134.69;7357186;19;20018;-54
2023/01/19 08:00:20;;;;;;;0.00;0.00;;;;;;;1.83;72.61;100151.88;7353003;19;20017;-51
2023/01/19 08:02:50;;;;;;;0.08;0.08;;;;;;;1.91;72.35;100166.47;7348823;19;20007;-54
2023/01/19 08:05:19;;;;;;;0.10;0.10;;;;;;;1.91;72.58;100168.19;7348177;19;20010;-56
2023/01/19 08:07:45;;;;;;;0.00;0.00;;;;;;;1.93;72.28;100163.91;7354321;19;20002;-53
2023/01/19 08:10:16;;;;;;;0.00;0.00;;;;;;;1.92;72.54;100169.91;7357088;19;20013;-54
2023/01/19 08:12:41;;;;;;;0.00;0.00;;;;;;;1.94;72.14;100173.34;7358177;19;20011;-56
2023/01/19 08:15:08;;;;;;;0.10;0.10;;;;;;;1.95;72.09;100187.94;7356325;19;22956;-55
2023/01/19 08:17:33;;;;;;;0.10;0.10;;;;;;;1.95;72.29;100185.38;7355885;19;20434;-54
2023/01/19 08:19:59;;;;;;;0.10;0.10;;;;;;;1.98;72.11;100193.13;7356616;19;22333;-56
2023/01/19 08:22:25;;;;;;;0.00;0.00;;;;;;;2.00;72.24;100193.97;7356518;19;20628;-54
2023/01/19 08:24:50;;;;;;;0.08;0.08;;;;;;;1.90;72.39;100175.06;7355311;19;20655;-52
2023/01/19 08:27:16;;;;;;;0.10;0.10;;;;;;;2.01;72.51;100198.25;7357414;19;20042;-49
2023/01/19 08:29:41;;;;;;;0.10;0.10;;;;;;;2.02;72.26;100194.81;7356319;19;20588;-55
2023/01/19 08:32:07;;;;;;;0.00;0.00;;;;;;;2.01;72.03;100198.25;7356207;19;20035;-51
2023/01/19 08:34:32;;;;;;;0.05;0.05;;;;;;;2.01;72.34;100193.13;7353100;19;20010;-57
2023/01/19 08:36:58;;;;;;;0.10;0.10;;;;;;;2.01;72.58;100206.00;7356866;19;20480;-54
2023/01/19 08:39:23;;;;;;;0.10;0.10;;;;;;;2.03;72.04;100210.31;7356697;19;20014;-54
2023/01/19 08:41:49;;;;;;;0.10;0.10;;;;;;;2.02;72.15;100199.97;7356735;19;20034;-55
2023/01/19 08:44:15;;;;;;;0.10;0.10;;;;;;;1.96;72.31;100194.81;7356725;19;20469;-54
2023/01/19 08:46:41;;;;;;;0.10;0.10;;;;;;;2.05;72.22;100210.31;7357071;19;20014;-54
2023/01/19 08:49:07;;;;;;;0.10;0.10;;;;;;;2.07;72.50;100208.59;7353678;19;20025;-55
2023/01/19 08:51:33;;;;;;;0.10;0.10;;;;;;;2.08;72.18;100215.47;7356243;19;20018;-55
2023/01/19 08:53:58;;;;;;;0.00;0.00;;;;;;;2.09;72.38;100222.34;7354656;19;20098;-52
2023/01/19 08:56:23;;;;;;;0.10;0.10;;;;;;;2.07;72.13;100218.88;7342324;19;20042;-55
2023/01/19 08:58:49;;;;;;;0.10;0.10;;;;;;;2.10;72.28;100224.06;7355813;19;20468;-56
2023/01/19 09:01:15;;;;;;;0.00;0.00;;;;;;;2.13;72.39;100230.91;7353503;19;20006;-53
2023/01/19 09:03:42;;;;;;;0.10;0.10;;;;;;;2.13;72.22;100223.19;7348903;19;20018;-53
2023/01/19 09:06:09;;;;;;;0.00;0.00;;;;;;;2.13;72.02;100218.94;7350929;19;20893;-54
2023/01/19 09:08:35;;;;;;;0.10;0.10;;;;;;;2.16;72.32;100233.53;7353363;19;20081;-54
2023/01/19 09:11:01;;;;;;;0.00;0.00;;;;;;;2.16;72.38;100231.81;7354774;19;20023;-54
2023/01/19 09:13:27;;;;;;;0.00;0.00;;;;;;;2.19;72.44;100234.41;7353963;19;20731;-57
2023/01/19 09:15:52;;;;;;;0.10;0.10;;;;;;;2.21;72.07;100236.97;7354587;19;20021;-52
2023/01/19 09:18:20;;;;;;;0.10;0.10;;;;;;;2.23;72.13;100241.28;7351317;19;20027;-58
2023/01/19 09:20:47;;;;;;;;;;;;;;;2.28;72.19;100239.59;7353920;19;20014;-57
2023/01/19 09:23:14;;;;;;;0.00;0.00;;;;;;;2.24;72.10;100232.72;7354536;19;19930;-57
2023/01/19 09:25:42;;;;;;;0.00;0.00;;;;;;;2.31;71.87;100239.59;7349674;19;20010;-57
2023/01/19 09:28:08;;;;;;;;;;;;;;;2.37;71.99;100243.03;7355014;19;20082;-57
2023/01/19 09:30:39;;;;;;;0.00;0.00;;;;;;;2.40;71.93;100241.34;7347709;19;22385;-58
2023/01/19 09:33:10;;;;;;;0.10;0.10;;;;;;;2.45;72.21;100251.66;7353214;19;20010;-57
2023/01/19 09:35:39;;;;;;;0.10;0.10;;;;;;;2.16;72.43;100195.75;7351681;19;20422;-58
2023/01/19 09:38:06;;;;;;;0.00;0.00;;;;;;;2.55;72.50;100256.00;7349792;19;20397;-55
2023/01/19 09:40:32;;;;;;;0.10;0.10;;;;;;;2.62;72.63;100260.28;7353934;19;20597;-57
2023/01/19 09:43:11;;;;;;;0.00;0.00;;;;;;;2.69;72.56;100256.91;7353268;19;20018;-57
2023/01/19 09:45:49;;;;;;;0.00;0.00;;;;;;;2.74;72.51;100262.91;7352650;19;20912;-58
2023/01/19 09:48:44;;;;;;;0.00;0.00;;;;;;;2.83;72.69;100265.50;7353112;19;20017;-57
2023/01/19 09:51:18;;;;;;;0.00;0.00;;;;;;;2.96;72.71;100265.53;7252908;19;2004436;-57
2023/01/19 09:54:08;;;;;;;0.10;0.10;;;;;;;3.14;72.84;100275.84;7354576;19;20094;-58
2023/01/19 09:56:33;;;;;;;0.10;0.10;;;;;;;3.26;72.48;100273.28;7346516;19;20006;-58
2023/01/19 09:59:00;;;;;;;0.10;0.10;;;;;;;3.46;72.39;100275.00;7352956;19;24524;-57
2023/01/19 10:01:37;;;;;;;0.00;0.00;;;;;;;3.64;72.83;100267.22;7351484;19;20007;-59
2023/01/19 10:04:23;;;;;;;;;;;;;;;3.95;73.02;100282.66;7351838;19;20007;-59
2023/01/19 10:06:50;;;;;;;0.10;0.10;;;;;;;4.09;72.39;100280.91;7350836;19;19942;-59
2023/01/19 10:09:27;;;;;;;0.00;0.00;;;;;;;4.20;72.08;100286.88;7352334;19;20014;-58
2023/01/19 10:12:15;;;;;;;0.05;0.05;;;;;;;4.34;72.11;100297.19;7350829;19;20014;-58
2023/01/19 10:14:54;;;;;;;0.00;0.00;;;;;;;4.36;71.89;100301.50;7346554;19;20083;-58
2023/01/19 10:17:45;;;;;;;0.00;0.00;;;;;;;4.47;72.12;100298.00;7357597;19;20002;-58
2023/01/19 10:20:16;;;;;;;0.10;0.10;;;;;;;4.63;72.21;100312.59;7257407;19;2004553;-58
2023/01/19 10:22:48;;;;;;;0.08;0.08;;;;;;;4.72;71.56;100294.44;7355905;19;20048;-58
2023/01/19 10:25:18;;;;;;;0.10;0.10;;;;;;;4.99;71.86;100297.72;7357438;19;20860;-58
2023/01/19 10:27:45;;;;;;;0.00;0.00;;;;;;;5.16;71.25;100307.06;7352524;19;20616;-58
2023/01/19 10:30:19;;;;;;;0.10;0.10;;;;;;;5.40;71.71;100306.03;7358039;19;20037;-56
2023/01/19 10:32:45;;;;;;;0.10;0.10;;;;;;;5.63;71.36;100318.81;7353396;19;20018;-57
2023/01/19 10:35:20;;;;;;;0.00;0.00;;;;;;;5.88;70.73;100306.50;7357094;19;20030;-56
2023/01/19 10:37:46;;;;;;;0.10;0.10;;;;;;;6.12;70.57;100317.50;7357647;19;20003;-58
2023/01/19 10:40:25;;;;;;;0.10;0.10;;;;;;;6.43;70.43;100308.50;7357946;19;20022;-60
2023/01/19 10:42:51;;;;;;;0.10;0.10;;;;;;;6.65;69.73;100313.44;7357402;19;20010;-59
2023/01/19 10:45:24;;;;;;;0.00;0.00;;;;;;;6.93;69.33;100312.16;7358956;19;20205;-59
2023/01/19 10:47:52;;;;;;;0.08;0.08;;;;;;;7.12;69.36;100320.56;7354044;19;20043;-59
2023/01/19 10:50:34;;;;;;;;;;;;;;;7.39;70.57;100334.84;7354553;19;20014;-58
2023/01/19 10:53:04;;;;;;;0.10;0.10;;;;;;;7.49;68.71;100336.44;7360760;19;19926;-58
2023/01/19 10:55:32;;;;;;;0.05;0.05;;;;;;;7.55;67.65;100343.25;7355639;19;20011;-58
2023/01/19 10:57:58;;;;;;;0.00;0.00;;;;;;;7.62;67.76;100339.69;7359921;19;20799;-58
2023/01/19 11:00:38;;;;;;;0.00;0.00;;;;;;;7.74;68.28;100346.41;7352102;19;20774;-58
2023/01/19 11:03:21;;;;;;;0.00;0.00;;;;;;;7.74;67.73;100346.41;7355195;19;20031;-59
2023/01/19 11:05:46;;;;;;;0.00;0.00;;;;;;;7.80;67.88;100351.50;7356684;19;20432;-57
2023/01/19 11:08:27;;;;;;;0.00;0.00;;;;;;;7.95;68.26;100350.41;7359747;19;20018;-58
2023/01/19 11:11:03;;;;;;;0.00;0.00;;;;;;;8.11;67.77;100346.66;7354951;19;20022;-57
2023/01/19 11:13:29;;;;;;;0.10;0.10;;;;;;;8.26;67.58;100350.69;7357595;19;20010;-58
2023/01/19 11:15:57;;;;;;;0.10;0.10;;;;;;;8.41;67.27;100350.44;7359683;19;20022;-57
2023/01/19 11:18:34;;;;;;;0.00;0.00;;;;;;;8.56;67.41;100352.72;7356895;19;20010;-57
2023/01/19 11:21:05;;;;;;;0.00;0.00;;;;;;;8.72;66.93;100355.06;7354643;19;20888;-59
2023/01/19 11:23:35;;;;;;;0.10;0.10;;;;;;;8.89;66.56;100368.56;7356851;19;20010;-59
2023/01/19 11:26:04;;;;;;;0.00;0.00;;;;;;;9.02;66.60;100367.41;7354822;19;20011;-56
2023/01/19 11:28:36;;;;;;;0.10;0.10;;;;;;;9.27;66.66;100369.47;7355966;19;20498;-58
2023/01/19 11:31:15;;;;;;;0.00;0.00;;;;;;;9.55;67.04;100365.34;7352898;19;20019;-61
2023/01/19 11:33:46;;;;;;;0.00;0.00;;;;;;;9.73;65.74;100358.81;7358365;19;20050;-59
2023/01/19 11:36:27;;;;;;;0.00;0.00;;;;;;;10.14;66.57;100364.75;7354872;19;20094;-59
2023/01/19 11:39:19;;;;;;;0.10;0.10;;;;;;;10.50;66.44;100368.13;7355803;19;20015;-58
2023/01/19 11:41:49;;;;;;;0.10;0.10;;;;;;;10.79;64.39;100363.84;7251951;19;2004525;-61
2023/01/19 11:44:28;;;;;;;0.10;0.10;;;;;;;11.15;64.35;100360.16;7356389;19;20091;-59
2023/01/19 11:47:03;;;;;;;0.10;0.10;;;;;;;11.51;63.92;100370.38;7356764;19;20022;-58
2023/01/19 11:49:42;;;;;;;0.10;0.10;;;;;;;11.91;63.91;100377.81;7355604;19;20733;-58